createdAt,value
2018-06-17T00:00:42.284Z,86.40
2018-06-17T00:02:35.071Z,83.61
2018-06-17T00:03:34.998Z,85.63
2018-06-17T00:05:27.787Z,84.86
2018-06-17T00:06:27.708Z,83.31
2018-06-17T00:08:20.527Z,83.03
2018-06-17T00:09:20.439Z,83.12
2018-06-17T00:11:13.235Z,83.31
2018-06-17T00:12:13.175Z,84.18
2018-06-17T00:14:06.056Z,84.28
2018-06-17T00:15:05.980Z,84.56
2018-06-17T00:16:58.779Z,84.56
2018-06-17T00:17:58.719Z,84.95
2018-06-17T00:19:51.555Z,85.05
2018-06-17T00:20:51.474Z,85.63
2018-06-17T00:22:44.238Z,83.99
2018-06-17T00:23:44.180Z,84.76
2018-06-17T00:25:36.963Z,86.21
2018-06-17T00:26:36.901Z,84.38
2018-06-17T00:28:29.684Z,84.18
2018-06-17T00:29:29.620Z,84.38
2018-06-17T00:31:22.399Z,84.23
2018-06-17T00:32:22.350Z,83.12
2018-06-17T00:34:15.137Z,85.39
2018-06-17T00:35:15.066Z,84.33
2018-06-17T00:37:07.837Z,81.29
2018-06-17T00:38:07.799Z,81.48
2018-06-17T00:40:00.597Z,81.29
2018-06-17T00:41:00.507Z,80.85
2018-06-17T00:42:53.274Z,82.01
2018-06-17T00:43:53.214Z,81.52
2018-06-17T00:45:46.059Z,82.68
2018-06-17T00:46:45.991Z,81.24
2018-06-17T00:48:38.753Z,83.16
2018-06-17T00:49:38.697Z,82.93
2018-06-17T00:51:31.501Z,82.54
2018-06-17T00:52:31.434Z,82.06
2018-06-17T00:54:24.237Z,83.12
2018-06-17T00:55:24.145Z,81.96
2018-06-17T00:57:16.921Z,83.31
2018-06-17T00:58:16.867Z,82.06
2018-06-17T01:00:09.689Z,82.93
2018-06-17T01:01:09.586Z,82.06
2018-06-17T01:03:02.405Z,80.33
2018-06-17T01:04:02.293Z,81.77
2018-06-17T01:05:55.120Z,82.45
2018-06-17T01:06:55.042Z,81.29
2018-06-17T01:08:47.824Z,79.94
2018-06-17T01:09:47.766Z,79.36
2018-06-17T01:11:40.556Z,80.23
2018-06-17T01:12:40.483Z,81.01
2018-06-17T01:14:33.269Z,81.48
2018-06-17T01:15:33.196Z,81.39
2018-06-17T01:17:25.992Z,83.18
2018-06-17T01:18:25.914Z,82.45
2018-06-17T01:20:18.732Z,83.37
2018-06-17T01:21:18.644Z,83.47
2018-06-17T01:23:11.431Z,83.18
2018-06-17T01:24:11.371Z,84.23
2018-06-17T01:26:04.172Z,83.23
2018-06-17T01:27:04.092Z,84.19
2018-06-17T01:28:56.886Z,83.33
2018-06-17T01:29:56.829Z,84.19
2018-06-17T01:31:49.637Z,83.81
2018-06-17T01:32:49.553Z,84.19
2018-06-17T01:34:42.351Z,84.48
2018-06-17T01:35:42.304Z,84.29
2018-06-17T01:37:35.095Z,85.74
2018-06-17T01:38:35.014Z,86.12
2018-06-17T01:40:27.855Z,86.69
2018-06-17T01:41:27.824Z,86.89
2018-06-17T01:43:20.538Z,86.99
2018-06-17T01:44:20.478Z,86.99
2018-06-17T01:46:13.768Z,86.79
2018-06-17T01:47:13.682Z,86.12
2018-06-17T01:49:06.474Z,83.91
2018-06-17T01:50:06.414Z,85.93
2018-06-17T01:51:59.227Z,86.22
2018-06-17T01:52:59.148Z,84.83
2018-06-17T01:54:51.942Z,86.85
2018-06-17T01:55:51.871Z,86.94
2018-06-17T01:57:44.685Z,86.18
2018-06-17T01:58:44.601Z,84.44
2018-06-17T02:00:37.433Z,86.18
2018-06-17T02:01:37.406Z,85.60
2018-06-17T02:03:30.145Z,86.75
2018-06-17T02:04:30.075Z,87.13
2018-06-17T02:06:23.237Z,86.75
2018-06-17T02:07:23.164Z,86.85
2018-06-17T02:09:15.992Z,86.94
2018-06-17T02:10:15.889Z,86.94
2018-06-17T02:12:08.675Z,87.71
2018-06-17T02:13:08.607Z,86.85
2018-06-17T02:15:01.418Z,87.90
2018-06-17T02:16:01.354Z,87.13
2018-06-17T02:17:54.144Z,87.76
2018-06-17T02:18:54.078Z,88.57
2018-06-17T02:20:46.892Z,88.44
2018-06-17T02:21:46.806Z,89.59
2018-06-17T02:23:39.611Z,86.99
2018-06-17T02:24:39.534Z,88.34
2018-06-17T02:26:32.332Z,88.92
2018-06-17T02:27:32.276Z,89.21
2018-06-17T02:29:25.050Z,88.44
2018-06-17T02:30:24.982Z,88.73
2018-06-17T02:32:17.773Z,88.87
2018-06-17T02:33:17.704Z,89.64
2018-06-17T02:35:10.470Z,89.74
2018-06-17T02:36:10.417Z,90.12
2018-06-17T02:38:03.199Z,90.12
2018-06-17T02:39:03.121Z,90.41
2018-06-17T02:40:55.909Z,89.07
2018-06-17T02:41:55.837Z,88.68
2018-06-17T02:43:48.631Z,90.12
2018-06-17T02:44:48.552Z,89.26
2018-06-17T02:46:41.327Z,89.45
2018-06-17T02:47:41.267Z,90.41
2018-06-17T02:49:34.048Z,90.41
2018-06-17T02:50:33.979Z,91.08
2018-06-17T02:52:26.767Z,91.37
2018-06-17T02:53:26.702Z,91.28
2018-06-17T02:55:19.500Z,89.54
2018-06-17T02:56:19.425Z,91.37
2018-06-17T02:58:12.218Z,91.18
2018-06-17T02:59:12.156Z,90.41
2018-06-17T03:01:04.956Z,91.18
2018-06-17T03:02:04.888Z,91.28
2018-06-17T03:03:57.768Z,91.08
2018-06-17T03:04:57.619Z,90.22
2018-06-17T03:06:50.397Z,90.99
2018-06-17T03:07:50.334Z,91.37
2018-06-17T03:09:43.116Z,90.89
2018-06-17T03:10:43.061Z,90.41
2018-06-17T03:12:35.819Z,90.22
2018-06-17T03:13:35.756Z,89.45
2018-06-17T03:15:28.543Z,90.89
2018-06-17T03:16:28.467Z,90.31
2018-06-17T03:18:21.263Z,91.66
2018-06-17T03:19:21.188Z,90.99
2018-06-17T03:21:13.964Z,90.31
2018-06-17T03:22:13.905Z,90.99
2018-06-17T03:24:06.694Z,91.47
2018-06-17T03:25:06.622Z,90.80
2018-06-17T03:26:59.389Z,91.18
2018-06-17T03:27:59.335Z,91.56
2018-06-17T03:29:52.125Z,91.56
2018-06-17T03:30:52.056Z,91.08
2018-06-17T03:32:44.829Z,90.51
2018-06-17T03:33:44.791Z,90.46
2018-06-17T03:35:37.550Z,91.37
2018-06-17T03:36:37.477Z,91.08
2018-06-17T03:38:30.275Z,91.37
2018-06-17T03:39:30.207Z,91.37
2018-06-17T03:41:22.987Z,91.37
2018-06-17T03:42:22.929Z,91.56
2018-06-17T03:44:15.719Z,91.66
2018-06-17T03:45:15.631Z,91.56
2018-06-17T03:47:08.404Z,91.99
2018-06-17T03:48:08.352Z,91.90
2018-06-17T03:50:01.131Z,90.45
2018-06-17T03:51:01.069Z,91.52
2018-06-17T03:52:53.838Z,91.80
2018-06-17T03:53:53.781Z,92.38
2018-06-17T03:55:46.567Z,92.57
2018-06-17T03:56:46.491Z,92.19
2018-06-17T03:58:39.289Z,91.90
2018-06-17T03:59:39.224Z,91.99
2018-06-17T04:01:32.037Z,92.38
2018-06-17T04:02:31.947Z,92.96
2018-06-17T04:04:24.746Z,92.86
2018-06-17T04:05:24.675Z,92.19
2018-06-17T04:07:17.559Z,92.57
2018-06-17T04:08:17.468Z,92.43
2018-06-17T04:10:10.325Z,93.10
2018-06-17T04:11:10.253Z,92.13
2018-06-17T04:13:03.040Z,92.71
2018-06-17T04:14:02.982Z,93.10
2018-06-17T04:15:55.806Z,93.19
2018-06-17T04:16:55.727Z,92.61
2018-06-17T04:18:48.531Z,91.99
2018-06-17T04:19:48.470Z,90.64
2018-06-17T04:21:41.310Z,91.31
2018-06-17T04:22:41.229Z,89.58
2018-06-17T04:24:34.022Z,87.80
2018-06-17T04:25:34.031Z,87.80
2018-06-17T04:27:26.745Z,86.49
2018-06-17T04:28:26.677Z,87.46
2018-06-17T04:30:19.522Z,85.63
2018-06-17T04:31:19.435Z,86.54
2018-06-17T04:33:12.216Z,84.90
2018-06-17T04:34:12.156Z,85.86
2018-06-17T04:36:04.987Z,87.45
2018-06-17T04:37:04.869Z,86.10
2018-06-17T04:38:57.666Z,84.31
2018-06-17T04:39:57.616Z,82.96
2018-06-17T04:41:50.403Z,81.74
2018-06-17T04:42:50.325Z,82.32
2018-06-17T04:44:43.104Z,81.40
2018-06-17T04:45:43.033Z,79.31
2018-06-17T04:47:35.851Z,76.84
2018-06-17T04:48:35.767Z,75.37
2018-06-17T04:50:28.566Z,68.24
2018-06-17T04:51:28.473Z,69.54
2018-06-17T04:53:21.278Z,65.37
2018-06-17T04:54:21.212Z,61.77
2018-06-17T04:56:14.066Z,62.23
2018-06-17T04:57:13.995Z,60.96
2018-06-17T04:59:06.834Z,57.68
2018-06-17T05:00:06.791Z,61.31
2018-06-17T05:01:59.589Z,59.95
2018-06-17T05:02:59.522Z,57.93
2018-06-17T05:04:52.309Z,58.13
2018-06-17T05:05:52.260Z,57.54
2018-06-17T05:07:45.090Z,58.06
2018-06-17T05:08:45.050Z,55.60
2018-06-17T05:10:37.808Z,55.89
2018-06-17T05:11:37.721Z,58.22
2018-06-17T05:13:30.515Z,53.58
2018-06-17T05:14:30.462Z,55.62
2018-06-17T05:16:23.270Z,54.31
2018-06-17T05:17:23.221Z,56.07
2018-06-17T05:19:16.013Z,55.87
2018-06-17T05:20:16.049Z,53.41
2018-06-17T05:22:08.774Z,54.77
2018-06-17T05:23:08.692Z,53.89
2018-06-17T05:25:01.554Z,53.55
2018-06-17T05:26:01.423Z,54.82
2018-06-17T05:27:54.255Z,55.30
2018-06-17T05:28:54.165Z,58.59
2018-06-17T05:30:46.967Z,53.77
2018-06-17T05:31:46.926Z,55.46
2018-06-17T05:33:39.809Z,53.73
2018-06-17T05:34:39.660Z,54.05
2018-06-17T05:36:32.465Z,55.05
2018-06-17T05:37:32.400Z,50.78
2018-06-17T05:39:25.214Z,52.17
2018-06-17T05:40:25.169Z,51.68
2018-06-17T05:42:18.176Z,53.81
2018-06-17T05:43:18.098Z,51.46
2018-06-17T05:45:10.941Z,48.46
2018-06-17T05:46:10.859Z,50.63
2018-06-17T05:48:03.655Z,48.50
2018-06-17T05:49:03.623Z,48.28
2018-06-17T05:50:56.407Z,48.82
2018-06-17T05:51:56.334Z,48.63
2018-06-17T05:53:49.124Z,48.87
2018-06-17T05:54:49.092Z,51.90
2018-06-17T05:56:41.887Z,48.60
2018-06-17T05:57:41.812Z,49.90
2018-06-17T05:59:34.617Z,50.20
2018-06-17T06:00:34.570Z,46.86
2018-06-17T06:02:27.360Z,47.67
2018-06-17T06:03:27.299Z,49.41
2018-06-17T06:05:20.097Z,49.63
2018-06-17T06:06:20.043Z,49.31
2018-06-17T06:08:12.892Z,48.36
2018-06-17T06:09:12.821Z,48.82
2018-06-17T06:11:05.683Z,48.82
2018-06-17T06:12:05.700Z,49.73
2018-06-17T06:13:58.386Z,47.57
2018-06-17T06:14:58.319Z,45.72
2018-06-17T06:16:51.186Z,50.93
2018-06-17T06:17:51.071Z,49.04
2018-06-17T06:19:43.859Z,50.90
2018-06-17T06:20:43.826Z,47.01
2018-06-17T06:22:36.632Z,50.04
2018-06-17T06:23:36.562Z,47.69
2018-06-17T06:25:29.371Z,48.36
2018-06-17T06:26:29.318Z,50.54
2018-06-17T06:28:22.142Z,51.68
2018-06-17T06:29:22.112Z,52.08
2018-06-17T06:31:14.908Z,48.97
2018-06-17T06:32:14.903Z,48.68
2018-06-17T06:34:07.698Z,48.09
2018-06-17T06:35:07.587Z,51.05
2018-06-17T06:37:00.383Z,50.98
2018-06-17T06:38:00.332Z,49.63
2018-06-17T06:39:53.156Z,47.06
2018-06-17T06:40:53.095Z,45.12
2018-06-17T06:42:45.942Z,49.02
2018-06-17T06:43:45.867Z,49.14
2018-06-17T06:45:38.744Z,49.14
2018-06-17T06:46:38.610Z,49.24
2018-06-17T06:48:31.489Z,48.18
2018-06-17T06:49:31.408Z,46.91
2018-06-17T06:51:24.815Z,48.79
2018-06-17T06:52:24.760Z,47.13
2018-06-17T06:54:18.210Z,47.57
2018-06-17T06:55:18.048Z,48.38
2018-06-17T06:57:10.892Z,48.67
2018-06-17T06:58:10.800Z,49.55
2018-06-17T07:00:05.131Z,47.00
2018-06-17T07:01:06.847Z,45.73
2018-06-17T07:02:58.037Z,45.63
2018-06-17T07:03:58.457Z,45.24
2018-06-17T07:05:50.698Z,44.23
2018-06-17T07:06:50.664Z,46.95
2018-06-17T07:08:43.502Z,50.51
2018-06-17T07:09:43.442Z,50.34
2018-06-17T07:11:36.261Z,47.45
2018-06-17T07:12:36.237Z,46.76
2018-06-17T07:14:29.025Z,47.86
2018-06-17T07:15:28.951Z,48.57
2018-06-17T07:17:21.777Z,46.61
2018-06-17T07:18:21.713Z,45.73
2018-06-17T07:20:14.530Z,45.53
2018-06-17T07:21:14.461Z,43.37
2018-06-17T07:23:07.258Z,47.39
2018-06-17T07:24:07.205Z,47.00
2018-06-17T07:26:00.031Z,45.88
2018-06-17T07:26:59.957Z,48.72
2018-06-17T07:28:52.774Z,47.45
2018-06-17T07:29:52.708Z,46.74
2018-06-17T07:31:45.510Z,48.11
2018-06-17T07:32:45.517Z,47.25
2018-06-17T07:34:38.263Z,47.16
2018-06-17T07:35:38.177Z,46.74
2018-06-17T07:37:30.980Z,47.30
2018-06-17T07:38:30.960Z,47.40
2018-06-17T07:40:23.806Z,48.55
2018-06-17T07:41:23.731Z,48.16
2018-06-17T07:43:16.528Z,47.52
2018-06-17T07:44:16.477Z,50.04
2018-06-17T07:46:09.293Z,51.07
2018-06-17T07:47:09.211Z,48.90
2018-06-17T07:49:02.004Z,50.85
2018-06-17T07:50:01.945Z,49.11
2018-06-17T07:51:54.796Z,48.92
2018-06-17T07:52:54.745Z,49.60
2018-06-17T07:54:47.524Z,49.70
2018-06-17T07:55:47.465Z,51.27
2018-06-17T07:57:40.282Z,51.05
2018-06-17T07:58:40.232Z,50.83
2018-06-17T08:00:33.020Z,50.85
2018-06-17T08:01:32.944Z,50.29
2018-06-17T08:03:25.789Z,50.71
2018-06-17T08:04:25.738Z,49.63
2018-06-17T08:06:18.547Z,49.36
2018-06-17T08:07:18.511Z,49.85
2018-06-17T08:09:11.276Z,50.44
2018-06-17T08:10:11.229Z,50.22
2018-06-17T08:12:04.055Z,53.10
2018-06-17T08:13:03.978Z,52.83
2018-06-17T08:14:56.804Z,51.37
2018-06-17T08:15:56.751Z,50.29
2018-06-17T08:17:49.568Z,50.88
2018-06-17T08:18:49.488Z,50.59
2018-06-17T08:20:42.287Z,51.83
2018-06-17T08:21:42.228Z,51.59
2018-06-17T08:23:35.060Z,54.42
2018-06-17T08:24:34.991Z,51.88
2018-06-17T08:26:27.844Z,53.27
2018-06-17T08:27:27.775Z,54.42
2018-06-17T08:29:20.582Z,52.69
2018-06-17T08:30:20.529Z,55.71
2018-06-17T08:32:13.372Z,54.35
2018-06-17T08:33:13.290Z,54.35
2018-06-17T08:35:06.088Z,53.19
2018-06-17T08:36:06.034Z,56.56
2018-06-17T08:37:58.871Z,55.80
2018-06-17T08:38:58.807Z,55.87
2018-06-17T08:40:51.689Z,56.10
2018-06-17T08:41:51.591Z,56.10
2018-06-17T08:43:44.392Z,57.45
2018-06-17T08:44:44.320Z,58.23
2018-06-17T08:46:37.128Z,55.86
2018-06-17T08:47:37.068Z,57.23
2018-06-17T08:49:29.956Z,57.42
2018-06-17T08:50:29.879Z,55.63
2018-06-17T08:52:22.737Z,57.10
2018-06-17T08:53:22.665Z,55.05
2018-06-17T08:55:15.474Z,54.20
2018-06-17T08:56:15.447Z,54.59
2018-06-17T08:58:08.237Z,53.32
2018-06-17T08:59:08.152Z,53.58
2018-06-17T09:01:00.952Z,54.90
2018-06-17T09:02:00.936Z,55.94
2018-06-17T09:03:53.767Z,54.93
2018-06-17T09:04:53.626Z,56.22
2018-06-17T09:06:46.489Z,57.23
2018-06-17T09:07:46.440Z,55.49
2018-06-17T09:09:39.306Z,53.47
2018-06-17T09:10:39.249Z,54.17
2018-06-17T09:12:32.021Z,54.93
2018-06-17T09:13:31.953Z,52.69
2018-06-17T09:15:24.830Z,52.49
2018-06-17T09:16:24.833Z,53.34
2018-06-17T09:18:17.583Z,52.20
2018-06-17T09:19:17.550Z,51.73
2018-06-17T09:21:10.313Z,58.68
2018-06-17T09:22:10.244Z,53.62
2018-06-17T09:24:03.059Z,50.88
2018-06-17T09:25:02.999Z,52.93
2018-06-17T09:26:55.787Z,54.30
2018-06-17T09:27:55.734Z,51.68
2018-06-17T09:29:48.554Z,52.08
2018-06-17T09:30:48.487Z,50.88
2018-06-17T09:32:41.282Z,53.42
2018-06-17T09:33:41.224Z,52.81
2018-06-17T09:35:34.028Z,50.85
2018-06-17T09:36:33.954Z,52.78
2018-06-17T09:38:26.766Z,54.83
2018-06-17T09:39:26.701Z,56.60
2018-06-17T09:41:19.520Z,56.10
2018-06-17T09:42:19.461Z,54.93
2018-06-17T09:44:12.336Z,53.37
2018-06-17T09:45:12.301Z,51.61
2018-06-17T09:47:05.044Z,59.11
2018-06-17T09:48:05.032Z,56.18
2018-06-17T09:49:57.797Z,53.64
2018-06-17T09:50:57.724Z,55.42
2018-06-17T09:52:51.503Z,55.49
2018-06-17T09:53:51.458Z,54.91
2018-06-17T09:55:44.281Z,53.56
2018-06-17T09:56:44.246Z,55.06
2018-06-17T09:58:37.088Z,52.15
2018-06-17T09:59:37.029Z,52.54
2018-06-17T10:01:31.896Z,51.29
2018-06-17T10:02:31.754Z,51.17
2018-06-17T10:04:24.666Z,52.83
2018-06-17T10:05:24.557Z,51.66
2018-06-17T10:07:17.450Z,52.69
2018-06-17T10:08:17.375Z,55.42
2018-06-17T10:10:10.187Z,52.59
2018-06-17T10:11:10.127Z,53.76
2018-06-17T10:13:03.458Z,52.76
2018-06-17T10:14:03.381Z,54.22
2018-06-17T10:15:56.235Z,54.22
2018-06-17T10:16:56.158Z,52.64
2018-06-17T10:18:48.977Z,53.58
2018-06-17T10:19:48.904Z,55.05
2018-06-17T10:21:41.776Z,53.14
2018-06-17T10:22:41.761Z,54.99
2018-06-17T10:24:34.608Z,57.21
2018-06-17T10:25:34.526Z,58.77
2018-06-17T10:27:27.322Z,56.75
2018-06-17T10:28:27.256Z,56.68
2018-06-17T10:30:20.131Z,55.71
2018-06-17T10:31:20.061Z,55.44
2018-06-17T10:33:12.913Z,55.57
2018-06-17T10:34:12.830Z,55.54
2018-06-17T10:36:05.673Z,55.77
2018-06-17T10:37:05.581Z,58.38
2018-06-17T10:38:58.383Z,58.61
2018-06-17T10:39:58.314Z,59.20
2018-06-17T10:41:51.167Z,57.22
2018-06-17T10:42:51.073Z,58.49
2018-06-17T10:44:43.932Z,60.69
2018-06-17T10:45:43.853Z,60.13
2018-06-17T10:47:36.654Z,59.35
2018-06-17T10:48:36.573Z,58.97
2018-06-17T10:50:30.049Z,58.48
2018-06-17T10:51:29.879Z,58.67
2018-06-17T10:53:22.736Z,58.12
2018-06-17T10:54:22.799Z,58.70
2018-06-17T10:56:15.649Z,58.40
2018-06-17T10:57:15.439Z,57.79
2018-06-17T10:59:08.228Z,56.75
2018-06-17T11:00:08.155Z,58.14
2018-06-17T11:02:00.963Z,56.48
2018-06-17T11:03:00.893Z,58.83
2018-06-17T11:04:53.725Z,58.50
2018-06-17T11:05:53.654Z,58.60
2018-06-17T11:07:46.477Z,58.80
2018-06-17T11:08:46.426Z,57.82
2018-06-17T11:10:39.243Z,58.28
2018-06-17T11:11:39.180Z,60.23
2018-06-17T11:13:31.972Z,58.84
2018-06-17T11:14:31.932Z,62.25
2018-06-17T11:16:24.773Z,60.62
2018-06-17T11:17:24.649Z,60.26
2018-06-17T11:19:17.446Z,58.24
2018-06-17T11:20:17.393Z,55.12
2018-06-17T11:22:10.263Z,57.14
2018-06-17T11:23:10.157Z,58.22
2018-06-17T11:25:02.977Z,56.04
2018-06-17T11:26:02.912Z,59.06
2018-06-17T11:27:55.723Z,59.06
2018-06-17T11:28:55.659Z,58.25
2018-06-17T11:30:48.482Z,58.74
2018-06-17T11:31:48.412Z,58.91
2018-06-17T11:33:41.235Z,58.87
2018-06-17T11:34:41.179Z,59.07
2018-06-17T11:36:34.079Z,58.69
2018-06-17T11:37:34.010Z,59.27
2018-06-17T11:39:26.819Z,59.33
2018-06-17T11:40:26.744Z,58.65
2018-06-17T11:42:19.552Z,60.21
2018-06-17T11:43:19.492Z,59.92
2018-06-17T11:45:12.918Z,59.92
2018-06-17T11:46:12.859Z,59.99
2018-06-17T11:48:05.876Z,61.25
2018-06-17T11:49:05.628Z,61.02
2018-06-17T11:50:58.486Z,60.54
2018-06-17T11:51:58.352Z,60.05
2018-06-17T11:53:51.160Z,62.00
2018-06-17T11:54:51.097Z,61.32
2018-06-17T11:56:43.917Z,61.51
2018-06-17T11:57:43.842Z,62.87
2018-06-17T11:59:36.748Z,60.05
2018-06-17T12:00:36.624Z,61.12
2018-06-17T12:02:29.455Z,60.25
2018-06-17T12:03:29.383Z,60.86
2018-06-17T12:05:22.193Z,60.57
2018-06-17T12:06:22.133Z,60.18
2018-06-17T12:08:14.934Z,59.79
2018-06-17T12:09:14.940Z,60.44
2018-06-17T12:11:07.694Z,59.59
2018-06-17T12:12:07.619Z,59.50
2018-06-17T12:14:00.472Z,58.95
2018-06-17T12:15:00.392Z,59.74
2018-06-17T12:16:53.199Z,60.05
2018-06-17T12:17:53.113Z,60.47
2018-06-17T12:19:45.931Z,58.14
2018-06-17T12:20:45.869Z,59.41
2018-06-17T12:22:38.722Z,59.89
2018-06-17T12:23:38.647Z,57.07
2018-06-17T12:25:31.558Z,59.95
2018-06-17T12:26:31.440Z,60.54
2018-06-17T12:28:24.236Z,60.35
2018-06-17T12:29:24.167Z,59.18
2018-06-17T12:31:16.980Z,59.61
2018-06-17T12:32:16.923Z,60.90
2018-06-17T12:34:09.752Z,61.16
2018-06-17T12:35:09.675Z,64.07
2018-06-17T12:37:02.494Z,62.26
2018-06-17T12:38:02.424Z,62.45
2018-06-17T12:39:55.217Z,60.64
2018-06-17T12:40:55.143Z,60.93
2018-06-17T12:42:47.949Z,60.18
2018-06-17T12:43:47.880Z,60.08
2018-06-17T12:45:40.695Z,58.33
2018-06-17T12:46:40.624Z,58.04
2018-06-17T12:48:33.502Z,58.43
2018-06-17T12:49:33.403Z,58.14
2018-06-17T12:51:26.207Z,58.23
2018-06-17T12:52:26.201Z,59.21
2018-06-17T12:54:18.935Z,59.69
2018-06-17T12:55:18.872Z,58.50
2018-06-17T12:57:11.672Z,59.76
2018-06-17T12:58:11.620Z,60.74
2018-06-17T13:00:04.411Z,60.31
2018-06-17T13:01:04.354Z,58.86
2018-06-17T13:02:57.224Z,59.64
2018-06-17T13:03:57.127Z,58.86
2018-06-17T13:05:49.931Z,60.31
2018-06-17T13:06:49.868Z,58.64
2018-06-17T13:08:42.696Z,61.35
2018-06-17T13:09:42.617Z,60.55
2018-06-17T13:11:35.409Z,60.00
2018-06-17T13:12:35.363Z,61.16
2018-06-17T13:14:28.168Z,60.80
2018-06-17T13:15:28.099Z,59.64
2018-06-17T13:17:20.960Z,58.79
2018-06-17T13:18:20.841Z,58.59
2018-06-17T13:20:13.662Z,58.31
2018-06-17T13:21:13.629Z,56.95
2018-06-17T13:23:06.439Z,58.40
2018-06-17T13:24:06.419Z,55.58
2018-06-17T13:25:59.206Z,56.85
2018-06-17T13:26:59.125Z,56.75
2018-06-17T13:28:51.943Z,57.04
2018-06-17T13:29:51.874Z,57.43
2018-06-17T13:31:44.739Z,56.95
2018-06-17T13:32:44.672Z,58.18
2018-06-17T13:34:37.502Z,58.28
2018-06-17T13:35:37.429Z,58.18
2018-06-17T13:37:30.267Z,57.23
2018-06-17T13:38:30.210Z,56.95
2018-06-17T13:40:23.140Z,57.95
2018-06-17T13:41:23.061Z,56.36
2018-06-17T13:43:15.945Z,57.14
2018-06-17T13:44:15.883Z,56.65
2018-06-17T13:46:09.561Z,55.49
2018-06-17T13:47:09.509Z,56.07
2018-06-17T13:49:02.343Z,55.68
2018-06-17T13:50:02.258Z,55.46
2018-06-17T13:51:55.058Z,55.55
2018-06-17T13:52:54.991Z,55.85
2018-06-17T13:54:47.883Z,55.55
2018-06-17T13:55:47.771Z,57.11
2018-06-17T13:57:40.616Z,57.53
2018-06-17T13:58:40.548Z,56.95
2018-06-17T14:00:33.517Z,57.04
2018-06-17T14:01:33.543Z,57.53
2018-06-17T14:03:26.309Z,55.36
2018-06-17T14:04:26.189Z,55.63
2018-06-17T14:06:19.048Z,54.27
2018-06-17T14:07:19.055Z,54.78
2018-06-17T14:09:11.824Z,55.53
2018-06-17T14:10:11.752Z,52.42
2018-06-17T14:12:04.591Z,52.62
2018-06-17T14:13:04.501Z,53.32
2018-06-17T14:14:57.425Z,52.55
2018-06-17T14:15:57.310Z,53.35
2018-06-17T14:17:50.176Z,51.57
2018-06-17T14:18:50.168Z,51.28
2018-06-17T14:20:42.995Z,52.64
2018-06-17T14:21:42.907Z,50.89
2018-06-17T14:23:35.730Z,50.60
2018-06-17T14:24:35.692Z,51.38
2018-06-17T14:26:28.530Z,51.87
2018-06-17T14:27:28.459Z,52.64
2018-06-17T14:29:21.330Z,52.74
2018-06-17T14:30:21.255Z,50.51
2018-06-17T14:32:14.095Z,50.70
2018-06-17T14:33:14.031Z,51.38
2018-06-17T14:35:06.855Z,50.12
2018-06-17T14:36:06.798Z,51.28
2018-06-17T14:37:59.599Z,48.95
2018-06-17T14:38:59.537Z,50.51
2018-06-17T14:40:52.385Z,51.87
2018-06-17T14:41:52.321Z,51.77
2018-06-17T14:43:45.116Z,51.35
2018-06-17T14:44:45.042Z,52.72
2018-06-17T14:46:37.875Z,51.72
2018-06-17T14:47:37.833Z,51.23
2018-06-17T14:49:30.677Z,51.98
2018-06-17T14:50:30.597Z,51.59
2018-06-17T14:52:23.440Z,52.18
2018-06-17T14:53:23.405Z,51.81
2018-06-17T14:55:16.206Z,51.81
2018-06-17T14:56:16.139Z,52.11
2018-06-17T14:58:08.935Z,51.23
2018-06-17T14:59:08.861Z,52.40
2018-06-17T15:01:01.817Z,53.17
2018-06-17T15:02:01.691Z,52.30
2018-06-17T15:03:54.569Z,52.20
2018-06-17T15:04:54.413Z,51.91
2018-06-17T15:06:47.760Z,52.78
2018-06-17T15:07:47.708Z,52.08
2018-06-17T15:09:40.629Z,52.30
2018-06-17T15:10:40.518Z,51.72
2018-06-17T15:12:33.541Z,52.88
2018-06-17T15:13:33.442Z,52.78
2018-06-17T15:15:26.217Z,52.78
2018-06-17T15:16:26.159Z,51.23
2018-06-17T15:18:19.063Z,53.08
2018-06-17T15:19:18.949Z,51.62
2018-06-17T15:21:11.793Z,50.87
2018-06-17T15:22:11.718Z,50.58
2018-06-17T15:24:04.512Z,52.50
2018-06-17T15:25:04.449Z,52.59
2018-06-17T15:26:57.287Z,49.77
2018-06-17T15:27:57.205Z,51.45
2018-06-17T15:29:49.999Z,52.03
2018-06-17T15:30:49.971Z,51.45
2018-06-17T15:32:42.770Z,52.33
2018-06-17T15:33:42.687Z,51.35
2018-06-17T15:35:35.497Z,51.84
2018-06-17T15:36:35.454Z,51.26
2018-06-17T15:38:28.299Z,50.58
2018-06-17T15:39:28.232Z,51.28
2018-06-17T15:41:21.103Z,51.28
2018-06-17T15:42:20.993Z,50.80
2018-06-17T15:44:13.884Z,50.12
2018-06-17T15:45:13.712Z,49.05
2018-06-17T15:47:06.544Z,50.02
2018-06-17T15:48:06.525Z,50.51
2018-06-17T15:49:59.228Z,50.21
2018-06-17T15:50:59.195Z,49.05
2018-06-17T15:52:51.956Z,51.16
2018-06-17T15:53:51.908Z,49.71
2018-06-17T15:55:44.665Z,49.90
2018-06-17T15:56:44.608Z,49.97
2018-06-17T15:58:37.413Z,51.53
2018-06-17T15:59:37.336Z,51.53
2018-06-17T16:01:30.156Z,51.43
2018-06-17T16:02:30.100Z,52.01
2018-06-17T16:04:22.967Z,51.35
2018-06-17T16:05:22.882Z,51.26
2018-06-17T16:07:15.752Z,50.36
2018-06-17T16:08:15.687Z,52.30
2018-06-17T16:10:08.494Z,50.36
2018-06-17T16:11:08.432Z,51.33
2018-06-17T16:13:01.229Z,52.56
2018-06-17T16:14:01.145Z,51.50
2018-06-17T16:15:54.004Z,55.67
2018-06-17T16:16:53.944Z,55.67
2018-06-17T16:18:46.908Z,60.52
2018-06-17T16:19:46.713Z,55.77
2018-06-17T16:21:39.484Z,52.86
2018-06-17T16:22:39.476Z,60.42
2018-06-17T16:24:32.257Z,55.18
2018-06-17T16:25:32.179Z,57.90
2018-06-17T16:27:24.975Z,54.11
2018-06-17T16:28:24.928Z,56.25
2018-06-17T16:30:17.715Z,54.60
2018-06-17T16:31:17.656Z,55.47
2018-06-17T16:33:10.476Z,55.06
2018-06-17T16:34:10.395Z,56.41
2018-06-17T16:36:03.214Z,52.44
2018-06-17T16:37:03.107Z,53.99
2018-06-17T16:38:55.921Z,53.70
2018-06-17T16:39:55.848Z,49.80
2018-06-17T16:41:48.640Z,51.84
2018-06-17T16:42:48.586Z,51.16
2018-06-17T16:44:41.397Z,53.67
2018-06-17T16:45:41.315Z,52.51
2018-06-17T16:47:34.143Z,55.74
2018-06-17T16:48:34.098Z,56.20
2018-06-17T16:50:26.875Z,54.67
2018-06-17T16:51:26.779Z,56.20
2018-06-17T16:53:19.632Z,54.16
2018-06-17T16:54:19.547Z,56.29
2018-06-17T16:56:12.361Z,56.77
2018-06-17T16:57:12.295Z,53.67
2018-06-17T16:59:05.077Z,54.64
2018-06-17T17:00:05.011Z,53.77
2018-06-17T17:01:57.790Z,52.29
2018-06-17T17:02:57.729Z,53.36
2018-06-17T17:04:50.523Z,54.71
2018-06-17T17:05:50.458Z,56.46
2018-06-17T17:07:43.221Z,55.98
2018-06-17T17:08:43.171Z,55.58
2018-06-17T17:10:35.962Z,52.68
2018-06-17T17:11:35.895Z,54.71
2018-06-17T17:13:28.726Z,58.30
2018-06-17T17:14:28.674Z,56.36
2018-06-17T17:16:21.474Z,54.71
2018-06-17T17:17:21.402Z,55.30
2018-06-17T17:19:14.179Z,57.33
2018-06-17T17:20:14.115Z,56.56
2018-06-17T17:22:06.946Z,56.65
2018-06-17T17:23:06.844Z,55.40
2018-06-17T17:24:59.633Z,53.75
2018-06-17T17:25:59.563Z,54.71
2018-06-17T17:27:52.354Z,54.62
2018-06-17T17:28:52.298Z,57.50
2018-06-17T17:30:45.078Z,57.62
2018-06-17T17:31:45.008Z,55.98
2018-06-17T17:33:37.788Z,53.65
2018-06-17T17:34:37.731Z,52.75
2018-06-17T17:36:30.532Z,54.88
2018-06-17T17:37:30.459Z,55.27
2018-06-17T17:39:23.260Z,56.82
2018-06-17T17:40:23.197Z,53.04
2018-06-17T17:42:16.029Z,55.36
2018-06-17T17:43:15.923Z,53.43
2018-06-17T17:45:08.693Z,53.31
2018-06-17T17:46:08.638Z,55.24
2018-06-17T17:48:01.424Z,52.53
2018-06-17T17:49:01.370Z,52.73
2018-06-17T17:50:54.152Z,52.44
2018-06-17T17:51:54.089Z,54.95
2018-06-17T17:53:46.859Z,55.82
2018-06-17T17:54:46.805Z,56.50
2018-06-17T17:56:39.607Z,53.59
2018-06-17T17:57:39.524Z,53.79
2018-06-17T17:59:32.308Z,55.82
2018-06-17T18:00:32.248Z,55.43
2018-06-17T18:02:25.067Z,55.73
2018-06-17T18:03:24.991Z,53.59
2018-06-17T18:05:17.766Z,56.11
2018-06-17T18:06:17.808Z,55.05
2018-06-17T18:08:10.528Z,53.69
2018-06-17T18:09:10.488Z,55.24
2018-06-17T18:11:03.229Z,54.47
2018-06-17T18:12:03.226Z,54.66
2018-06-17T18:13:56.003Z,54.57
2018-06-17T18:14:55.925Z,52.73
2018-06-17T18:16:48.740Z,54.37
2018-06-17T18:17:48.612Z,54.66
2018-06-17T18:19:41.430Z,53.21
2018-06-17T18:20:41.415Z,53.69
2018-06-17T18:22:34.181Z,54.57
2018-06-17T18:23:34.134Z,52.82
2018-06-17T18:25:26.879Z,50.14
2018-06-17T18:26:26.820Z,52.27
2018-06-17T18:28:19.644Z,52.24
2018-06-17T18:29:19.562Z,52.24
2018-06-17T18:31:12.353Z,51.47
2018-06-17T18:32:12.285Z,52.41